Time,TemperatureF,DewpointF,PressureIn,WindDirection,WindDirectionDegrees,WindSpeedMPH,WindSpeedGustMPH,Humidity,HourlyPrecipIn,Conditions,Clouds,dailyrainin,SolarRadiationWatts/m^2,SoftwareType,DateUTC
2013-02-11 00:01:00,41.0,26.0,-100.00,NW,322,0.0,1.0,55,-99.99,,,-99.99,0.000000,,2013-02-11 08:01:00,
2013-02-11 00:11:00,41.0,26.0,-100.00,East,95,1.0,2.0,55,-99.99,,,-99.99,0.000000,,2013-02-11 08:11:00,
2013-02-11 00:21:00,41.0,26.0,-100.00,East,86,0.0,1.0,55,-99.99,,,-99.99,0.000000,,2013-02-11 08:21:00,
2013-02-11 00:31:00,41.0,26.0,-100.00,NE,40,0.0,1.0,55,-99.99,,,-99.99,0.000000,,2013-02-11 08:31:00,
2013-02-11 00:42:00,41.0,26.0,-100.00,NE,45,1.0,2.0,54,-99.99,,,-99.99,0.000000,,2013-02-11 08:42:00,
2013-02-11 00:52:00,41.0,26.0,-100.00,ENE,76,1.0,3.0,54,-99.99,,,-99.99,0.000000,,2013-02-11 08:52:00,
2013-02-11 01:01:00,41.0,26.0,-100.00,NNE,22,2.0,4.0,54,-99.99,,,-99.99,0.000000,,2013-02-11 09:01:00,
2013-02-11 01:12:00,41.0,26.0,-100.00,North,10,1.0,3.0,54,-99.99,,,-99.99,0.000000,,2013-02-11 09:12:00,
2013-02-11 01:21:00,41.0,26.0,-100.00,North,349,2.0,6.0,54,-99.99,,,-99.99,0.000000,,2013-02-11 09:21:00,
2013-02-11 01:31:00,41.0,26.0,-100.00,North,349,2.0,6.0,54,-99.99,,,-99.99,0.000000,,2013-02-11 09:31:00,
2013-02-11 01:41:00,41.0,26.0,-100.00,North,356,3.0,6.0,54,-99.99,,,-99.99,0.000000,,2013-02-11 09:41:00,
2013-02-11 01:51:00,41.0,26.0,-100.00,North,350,2.0,4.0,55,-99.99,,,-99.99,0.000000,,2013-02-11 09:51:00,
2013-02-11 02:01:00,41.0,26.0,-100.00,North,0,1.0,3.0,55,-99.99,,,-99.99,0.000000,,2013-02-11 10:01:00,
2013-02-11 02:11:00,41.0,26.0,-100.00,NNE,13,6.0,15.0,56,-99.99,,,-99.99,0.000000,,2013-02-11 10:11:00,
2013-02-11 02:21:00,41.0,26.0,-100.00,NNE,13,6.0,15.0,56,-99.99,,,-99.99,0.000000,,2013-02-11 10:21:00,
2013-02-11 02:31:00,41.0,26.0,-100.00,North,6,5.0,11.0,56,-99.99,,,-99.99,0.000000,,2013-02-11 10:31:00,
2013-02-11 02:41:00,41.0,26.0,-100.00,NE,48,2.0,8.0,55,-99.99,,,-99.99,0.000000,,2013-02-11 10:41:00,
2013-02-11 02:51:00,41.0,26.0,-100.00,NE,48,2.0,8.0,55,-99.99,,,-99.99,0.000000,,2013-02-11 10:51:00,
2013-02-11 03:01:00,40.0,25.0,-100.00,NNE,20,1.0,4.0,54,-99.99,,,-99.99,0.000000,,2013-02-11 11:01:00,
2013-02-11 03:11:00,40.0,25.0,-100.00,North,4,1.0,3.0,55,-99.99,,,-99.99,0.000000,,2013-02-11 11:11:00,
2013-02-11 03:22:00,39.0,25.0,-100.00,NW,312,1.0,2.0,57,-99.99,,,-99.99,0.000000,,2013-02-11 11:22:00,
2013-02-11 03:32:00,39.0,25.0,-100.00,NW,312,1.0,2.0,57,-99.99,,,-99.99,0.000000,,2013-02-11 11:32:00,
2013-02-11 03:42:00,38.0,25.0,-100.00,NW,320,0.0,1.0,58,-99.99,,,-99.99,0.000000,,2013-02-11 11:42:00,
2013-02-11 03:52:00,38.0,24.0,-100.00,NNE,17,2.0,4.0,58,-99.99,,,-99.99,0.000000,,2013-02-11 11:52:00,
2013-02-11 04:03:00,38.0,23.0,-100.00,NNE,13,2.0,5.0,54,-99.99,,,-99.99,0.000000,,2013-02-11 12:03:00,
2013-02-11 04:12:00,38.0,23.0,-100.00,North,358,1.0,5.0,54,-99.99,,,-99.99,0.000000,,2013-02-11 12:12:00,
2013-02-11 04:22:00,38.0,23.0,-100.00,North,358,1.0,5.0,54,-99.99,,,-99.99,0.000000,,2013-02-11 12:22:00,
2013-02-11 04:31:00,38.0,22.0,-100.00,North,2,2.0,4.0,53,-99.99,,,-99.99,0.000000,,2013-02-11 12:31:00,
2013-02-11 04:42:00,38.0,20.0,-100.00,NNE,14,3.0,6.0,48,-99.99,,,-99.99,0.000000,,2013-02-11 12:42:00,
2013-02-11 04:52:00,38.0,20.0,-100.00,NNE,14,3.0,6.0,48,-99.99,,,-99.99,0.000000,,2013-02-11 12:52:00,
2013-02-11 05:01:00,38.0,19.0,-100.00,NNE,18,3.0,6.0,47,-99.99,,,-99.99,0.000000,,2013-02-11 13:01:00,
2013-02-11 05:11:00,38.0,19.0,-100.00,NNE,17,2.0,6.0,47,-99.99,,,-99.99,0.000000,,2013-02-11 13:11:00,
2013-02-11 05:21:00,37.0,19.0,-100.00,North,354,2.0,6.0,47,-99.99,,,-99.99,0.000000,,2013-02-11 13:21:00,
2013-02-11 05:32:00,37.0,19.0,-100.00,NNW,343,1.0,4.0,47,-99.99,,,-99.99,0.000000,,2013-02-11 13:32:00,
2013-02-11 05:42:00,36.0,19.0,-100.00,West,278,1.0,3.0,50,-99.99,,,-99.99,0.000000,,2013-02-11 13:42:00,
2013-02-11 05:51:00,36.0,19.0,-100.00,WNW,282,2.0,3.0,51,-99.99,,,-99.99,0.000000,,2013-02-11 13:51:00,
2013-02-11 06:01:00,36.0,19.0,-100.00,WNW,282,2.0,3.0,51,-99.99,,,-99.99,0.000000,,2013-02-11 14:01:00,
2013-02-11 06:11:00,36.0,19.0,-100.00,WNW,296,1.0,2.0,50,-99.99,,,-99.99,0.000000,,2013-02-11 14:11:00,
2013-02-11 06:21:00,36.0,18.0,-100.00,NNW,345,2.0,5.0,49,-99.99,,,-99.99,0.000000,,2013-02-11 14:21:00,
2013-02-11 06:32:00,36.0,18.0,-100.00,NNW,345,2.0,5.0,49,-99.99,,,-99.99,0.000000,,2013-02-11 14:32:00,
2013-02-11 06:42:00,36.0,17.0,-100.00,NW,319,3.0,7.0,46,-99.99,,,-99.99,0.000000,,2013-02-11 14:42:00,
2013-02-11 06:52:00,36.0,17.0,-100.00,NW,319,3.0,7.0,46,-99.99,,,-99.99,0.000000,,2013-02-11 14:52:00,
2013-02-11 07:01:00,36.0,17.0,-100.00,NNW,332,2.0,4.0,47,-99.99,,,-99.99,0.000000,,2013-02-11 15:01:00,
2013-02-11 07:11:00,36.0,17.0,-100.00,NNW,331,2.0,5.0,47,-99.99,,,-99.99,2.000000,,2013-02-11 15:11:00,
2013-02-11 07:22:00,36.0,17.0,-100.00,NNW,331,2.0,5.0,47,-99.99,,,-99.99,2.000000,,2013-02-11 15:22:00,
2013-02-11 07:32:00,36.0,17.0,-100.00,NW,314,2.0,4.0,47,-99.99,,,-99.99,7.000000,,2013-02-11 15:32:00,
2013-02-11 07:42:00,35.0,18.0,-100.00,NW,318,2.0,3.0,49,-99.99,,,-99.99,48.000000,,2013-02-11 15:42:00,
2013-02-11 07:52:00,36.0,18.0,-100.00,NW,313,2.0,3.0,46,-99.99,,,-99.99,80.000000,,2013-02-11 15:52:00,
2013-02-11 08:01:00,36.0,18.0,-100.00,NW,313,2.0,3.0,46,-99.99,,,-99.99,80.000000,,2013-02-11 16:01:00,
2013-02-11 08:11:00,38.0,17.0,-100.00,NW,323,2.0,5.0,42,-99.99,,,-99.99,162.000000,,2013-02-11 16:11:00,
2013-02-11 08:21:00,38.0,17.0,-100.00,NW,323,2.0,5.0,42,-99.99,,,-99.99,162.000000,,2013-02-11 16:21:00,
2013-02-11 08:32:00,39.0,18.0,-100.00,NW,321,2.0,4.0,41,-99.99,,,-99.99,196.000000,,2013-02-11 16:32:00,
2013-02-11 08:42:00,40.0,16.0,-100.00,NNW,340,3.0,7.0,38,-99.99,,,-99.99,231.000000,,2013-02-11 16:42:00,
2013-02-11 08:52:00,41.0,16.0,-100.00,NNW,336,4.0,8.0,36,-99.99,,,-99.99,303.000000,,2013-02-11 16:52:00,
2013-02-11 09:01:00,41.0,16.0,-100.00,NNW,336,4.0,8.0,36,-99.99,,,-99.99,303.000000,,2013-02-11 17:01:00,
2013-02-11 09:11:00,41.0,15.0,-100.00,NNW,329,4.0,8.0,35,-99.99,,,-99.99,371.000000,,2013-02-11 17:11:00,
2013-02-11 09:21:00,42.0,15.0,-100.00,NNW,330,3.0,7.0,34,-99.99,,,-99.99,405.000000,,2013-02-11 17:21:00,
2013-02-11 09:32:00,42.0,15.0,-100.00,NNW,330,3.0,7.0,34,-99.99,,,-99.99,405.000000,,2013-02-11 17:32:00,
2013-02-11 09:42:00,42.0,15.0,-100.00,NW,320,4.0,8.0,32,-99.99,,,-99.99,468.000000,,2013-02-11 17:42:00,
2013-02-11 09:52:00,43.0,14.0,-100.00,NNW,339,5.0,10.0,31,-99.99,,,-99.99,501.000000,,2013-02-11 17:52:00,
2013-02-11 10:01:00,43.0,14.0,-100.00,NNW,339,5.0,10.0,31,-99.99,,,-99.99,501.000000,,2013-02-11 18:01:00,
2013-02-11 10:11:00,43.0,13.0,-100.00,NNW,346,6.0,12.0,29,-99.99,,,-99.99,530.000000,,2013-02-11 18:11:00,
2013-02-11 10:21:00,44.0,13.0,-100.00,North,357,5.0,13.0,28,-99.99,,,-99.99,584.000000,,2013-02-11 18:21:00,
2013-02-11 10:32:00,44.0,13.0,-100.00,North,357,5.0,13.0,28,-99.99,,,-99.99,584.000000,,2013-02-11 18:32:00,
2013-02-11 10:40:00,46.0,11.0,-100.00,NNW,343,7.0,16.0,24,-99.99,,,-99.99,710.000000,,2013-02-11 18:40:00,
2013-02-11 10:42:00,44.0,13.0,-100.00,NNW,340,4.0,8.0,28,-99.99,,,-99.99,631.000000,,2013-02-11 18:42:00,
2013-02-11 10:52:00,45.0,12.0,-100.00,North,8,6.0,10.0,26,-99.99,,,-99.99,654.000000,,2013-02-11 18:52:00,
2013-02-11 11:01:00,45.0,12.0,-100.00,North,8,6.0,10.0,26,-99.99,,,-99.99,654.000000,,2013-02-11 19:01:00,
2013-02-11 11:11:00,46.0,11.0,-100.00,North,355,6.0,14.0,24,-99.99,,,-99.99,693.000000,,2013-02-11 19:11:00,
2013-02-11 11:20:00,47.0,10.0,-100.00,NNW,341,5.0,14.0,22,-99.99,,,-99.99,758.000000,,2013-02-11 19:20:00,
2013-02-11 11:21:00,46.0,11.0,-100.00,NNW,343,7.0,16.0,24,-99.99,,,-99.99,710.000000,,2013-02-11 19:21:00,
2013-02-11 11:31:00,46.0,11.0,-100.00,NNW,343,7.0,16.0,24,-99.99,,,-99.99,710.000000,,2013-02-11 19:31:00,
2013-02-11 12:01:00,47.0,10.0,-100.00,NNW,348,6.0,17.0,22,-99.99,,,-99.99,752.000000,,2013-02-11 20:01:00,
2013-02-11 12:11:00,47.0,10.0,-100.00,NNW,341,5.0,14.0,22,-99.99,,,-99.99,758.000000,,2013-02-11 20:11:00,
2013-02-11 12:31:00,48.0,10.0,-100.00,North,2,6.0,13.0,21,-99.99,,,-99.99,771.000000,,2013-02-11 20:31:00,
2013-02-11 12:41:00,48.0,10.0,-100.00,NNE,18,6.0,13.0,21,-99.99,,,-99.99,778.000000,,2013-02-11 20:41:00,
2013-02-11 12:52:00,48.0,10.0,-100.00,North,3,6.0,14.0,21,-99.99,,,-99.99,777.000000,,2013-02-11 20:52:00,
2013-02-11 13:02:00,48.0,10.0,-100.00,North,3,6.0,14.0,21,-99.99,,,-99.99,777.000000,,2013-02-11 21:02:00,
2013-02-11 13:11:00,48.0,9.0,-100.00,NNE,22,6.0,12.0,20,-99.99,,,-99.99,772.000000,,2013-02-11 21:11:00,
2013-02-11 13:21:00,49.0,9.0,-100.00,North,349,6.0,16.0,20,-99.99,,,-99.99,770.000000,,2013-02-11 21:21:00,
2013-02-11 13:31:00,49.0,10.0,-100.00,North,8,5.0,14.0,20,-99.99,,,-99.99,766.000000,,2013-02-11 21:31:00,
2013-02-11 13:41:00,49.0,10.0,-100.00,North,3,5.0,13.0,20,-99.99,,,-99.99,745.000000,,2013-02-11 21:41:00,
2013-02-11 13:51:00,49.0,10.0,-100.00,North,10,6.0,12.0,20,-99.99,,,-99.99,732.000000,,2013-02-11 21:51:00,
2013-02-11 14:01:00,49.0,10.0,-100.00,North,10,6.0,12.0,20,-99.99,,,-99.99,732.000000,,2013-02-11 22:01:00,
2013-02-11 14:11:00,50.0,10.0,-100.00,NNW,330,5.0,11.0,20,-99.99,,,-99.99,703.000000,,2013-02-11 22:11:00,
2013-02-11 14:21:00,50.0,10.0,-100.00,North,351,5.0,11.0,20,-99.99,,,-99.99,684.000000,,2013-02-11 22:21:00,
2013-02-11 14:32:00,50.0,10.0,-100.00,North,351,5.0,11.0,20,-99.99,,,-99.99,684.000000,,2013-02-11 22:32:00,
2013-02-11 14:41:00,50.0,11.0,-100.00,North,8,5.0,11.0,20,-99.99,,,-99.99,666.000000,,2013-02-11 22:41:00,
2013-02-11 14:52:00,50.0,9.0,-100.00,North,353,5.0,12.0,19,-99.99,,,-99.99,643.000000,,2013-02-11 22:52:00,
2013-02-11 15:01:00,50.0,10.0,-100.00,North,358,5.0,12.0,19,-99.99,,,-99.99,619.000000,,2013-02-11 23:01:00,
2013-02-11 15:10:00,50.0,10.0,-100.00,NNE,21,5.0,11.0,19,-99.99,,,-99.99,446.000000,,2013-02-11 23:10:00,
2013-02-11 15:11:00,50.0,10.0,-100.00,North,7,5.0,15.0,19,-99.99,,,-99.99,567.000000,,2013-02-11 23:11:00,
2013-02-11 15:21:00,50.0,9.0,-100.00,NNE,14,6.0,13.0,19,-99.99,,,-99.99,540.000000,,2013-02-11 23:21:00,
2013-02-11 15:31:00,50.0,9.0,-100.00,NNE,14,6.0,13.0,19,-99.99,,,-99.99,540.000000,,2013-02-11 23:31:00,
2013-02-11 15:41:00,50.0,10.0,-100.00,North,10,5.0,10.0,19,-99.99,,,-99.99,478.000000,,2013-02-11 23:41:00,
2013-02-11 15:50:00,50.0,10.0,-100.00,NNW,342,4.0,10.0,20,-99.99,,,-99.99,309.000000,,2013-02-11 23:50:00,
2013-02-11 15:52:00,50.0,10.0,-100.00,North,10,5.0,10.0,19,-99.99,,,-99.99,478.000000,,2013-02-11 23:52:00,
2013-02-11 16:01:00,50.0,10.0,-100.00,NNE,21,5.0,11.0,19,-99.99,,,-99.99,446.000000,,2013-02-12 00:01:00,
2013-02-11 16:42:00,50.0,10.0,-100.00,NNW,342,4.0,10.0,20,-99.99,,,-99.99,309.000000,,2013-02-12 00:42:00,
2013-02-11 17:21:00,50.0,10.0,-100.00,NNW,332,4.0,11.0,20,-99.99,,,-99.99,163.000000,,2013-02-12 01:21:00,
2013-02-11 17:30:00,48.0,10.0,-100.00,NNW,348,2.0,5.0,21,-99.99,,,-99.99,4.000000,,2013-02-12 01:30:00,
2013-02-11 17:31:00,49.0,9.0,-100.00,North,358,4.0,11.0,19,-99.99,,,-99.99,124.000000,,2013-02-12 01:31:00,
2013-02-11 17:42:00,49.0,8.0,-100.00,North,5,4.0,10.0,19,-99.99,,,-99.99,81.000000,,2013-02-12 01:42:00,
2013-02-11 17:51:00,49.0,9.0,-100.00,North,7,4.0,9.0,20,-99.99,,,-99.99,27.000000,,2013-02-12 01:51:00,
2013-02-11 18:01:00,48.0,9.0,-100.00,NNE,16,3.0,7.0,20,-99.99,,,-99.99,12.000000,,2013-02-12 02:01:00,
2013-02-11 18:11:00,48.0,9.0,-100.00,North,355,3.0,8.0,20,-99.99,,,-99.99,7.000000,,2013-02-12 02:11:00,
2013-02-11 18:21:00,48.0,10.0,-100.00,NNW,348,2.0,5.0,21,-99.99,,,-99.99,4.000000,,2013-02-12 02:21:00,
2013-02-11 18:52:00,46.0,9.0,-100.00,NW,304,1.0,2.0,22,-99.99,,,-99.99,0.000000,,2013-02-12 02:52:00,
2013-02-11 19:02:00,46.0,9.0,-100.00,NW,304,1.0,2.0,22,-99.99,,,-99.99,0.000000,,2013-02-12 03:02:00,
2013-02-11 19:11:00,45.0,9.0,-100.00,West,272,1.0,3.0,23,-99.99,,,-99.99,0.000000,,2013-02-12 03:11:00,
2013-02-11 19:21:00,45.0,9.0,-100.00,West,272,1.0,3.0,23,-99.99,,,-99.99,0.000000,,2013-02-12 03:21:00,
2013-02-11 19:31:00,45.0,10.0,-100.00,WNW,282,1.0,2.0,24,-99.99,,,-99.99,0.000000,,2013-02-12 03:31:00,
2013-02-11 19:41:00,43.0,12.0,-100.00,SW,223,2.0,3.0,27,-99.99,,,-99.99,0.000000,,2013-02-12 03:41:00,
2013-02-11 19:51:00,43.0,12.0,-100.00,SW,222,2.0,3.0,28,-99.99,,,-99.99,0.000000,,2013-02-12 03:51:00,
2013-02-11 20:01:00,42.0,11.0,-100.00,SW,226,1.0,2.0,28,-99.99,,,-99.99,0.000000,,2013-02-12 04:01:00,
2013-02-11 20:11:00,42.0,11.0,-100.00,SW,233,0.0,2.0,28,-99.99,,,-99.99,0.000000,,2013-02-12 04:11:00,
2013-02-11 20:21:00,42.0,11.0,-100.00,SE,141,0.0,1.0,27,-99.99,,,-99.99,0.000000,,2013-02-12 04:21:00,
2013-02-11 20:31:00,41.0,12.0,-100.00,SW,232,2.0,4.0,30,-99.99,,,-99.99,0.000000,,2013-02-12 04:31:00,
2013-02-11 20:41:00,41.0,11.0,-100.00,WSW,241,2.0,4.0,28,-99.99,,,-99.99,0.000000,,2013-02-12 04:41:00,
2013-02-11 20:51:00,41.0,11.0,-100.00,WSW,248,2.0,3.0,28,-99.99,,,-99.99,0.000000,,2013-02-12 04:51:00,
2013-02-11 21:01:00,41.0,11.0,-100.00,WSW,248,2.0,3.0,28,-99.99,,,-99.99,0.000000,,2013-02-12 05:01:00,
2013-02-11 21:11:00,42.0,10.0,-100.00,West,270,1.0,3.0,27,-99.99,,,-99.99,0.000000,,2013-02-12 05:11:00,
2013-02-11 21:21:00,41.0,9.0,-100.00,West,274,1.0,2.0,27,-99.99,,,-99.99,0.000000,,2013-02-12 05:21:00,
2013-02-11 21:31:00,41.0,9.0,-100.00,West,274,1.0,2.0,27,-99.99,,,-99.99,0.000000,,2013-02-12 05:31:00,
2013-02-11 21:42:00,42.0,9.0,-100.00,WNW,288,2.0,3.0,26,-99.99,,,-99.99,0.000000,,2013-02-12 05:42:00,
2013-02-11 21:52:00,42.0,9.0,-100.00,WNW,288,2.0,3.0,26,-99.99,,,-99.99,0.000000,,2013-02-12 05:52:00,
2013-02-11 22:01:00,41.0,9.0,-100.00,West,265,2.0,3.0,26,-99.99,,,-99.99,0.000000,,2013-02-12 06:01:00,
2013-02-11 22:12:00,41.0,10.0,-100.00,West,274,3.0,4.0,27,-99.99,,,-99.99,0.000000,,2013-02-12 06:12:00,
2013-02-11 22:21:00,41.0,10.0,-100.00,West,269,2.0,3.0,27,-99.99,,,-99.99,0.000000,,2013-02-12 06:21:00,
2013-02-11 22:31:00,41.0,10.0,-100.00,West,269,2.0,3.0,27,-99.99,,,-99.99,0.000000,,2013-02-12 06:31:00,
2013-02-11 22:42:00,40.0,10.0,-100.00,WNW,287,1.0,1.0,28,-99.99,,,-99.99,0.000000,,2013-02-12 06:42:00,
2013-02-11 22:51:00,40.0,11.0,-100.00,NNW,331,0.0,1.0,30,-99.99,,,-99.99,0.000000,,2013-02-12 06:51:00,
2013-02-11 23:01:00,40.0,11.0,-100.00,NNW,331,0.0,1.0,30,-99.99,,,-99.99,0.000000,,2013-02-12 07:01:00,
2013-02-11 23:11:00,39.0,11.0,-100.00,West,275,0.0,1.0,31,-99.99,,,-99.99,0.000000,,2013-02-12 07:11:00,
2013-02-11 23:21:00,39.0,12.0,-100.00,WSW,250,1.0,2.0,32,-99.99,,,-99.99,0.000000,,2013-02-12 07:21:00,
2013-02-11 23:31:00,39.0,12.0,-100.00,West,276,1.0,2.0,33,-99.99,,,-99.99,0.000000,,2013-02-12 07:31:00,
2013-02-11 23:41:00,39.0,12.0,-100.00,West,276,1.0,2.0,33,-99.99,,,-99.99,0.000000,,2013-02-12 07:41:00,
2013-02-11 23:50:00,38.0,14.0,-100.00,West,272,3.0,4.0,38,-99.99,,,-99.99,0.000000,,2013-02-12 07:50:00,
2013-02-11 23:51:00,38.0,14.0,-100.00,WNW,284,2.0,3.0,36,-99.99,,,-99.99,0.000000,,2013-02-12 07:51:00,